sensor_id;sensor_type;location;lat;lon;timestamp;pressure;altitude;pressure_sealevel;temperature;humidity
47080;BME280;33067;49.296;14.470;2023-05-23T00:00:10;96517.92;;;22.48;36.55
47080;BME280;33067;49.296;14.470;2023-05-23T00:02:34;96517.17;;;22.77;36.53
47080;BME280;33067;49.296;14.470;2023-05-23T00:05:00;96517.33;;;23.04;36.58
47080;BME280;33067;49.296;14.470;2023-05-23T00:07:25;96515.37;;;22.77;36.58
47080;BME280;33067;49.296;14.470;2023-05-23T00:09:50;96514.03;;;22.44;36.68
47080;BME280;33067;49.296;14.470;2023-05-23T00:12:15;96512.25;;;22.40;36.71
47080;BME280;33067;49.296;14.470;2023-05-23T00:14:41;96510.91;;;22.65;36.79
47080;BME280;33067;49.296;14.470;2023-05-23T00:17:07;96507.70;;;22.83;36.82
47080;BME280;33067;49.296;14.470;2023-05-23T00:19:31;96506.71;;;22.88;36.78
47080;BME280;33067;49.296;14.470;2023-05-23T00:21:57;96506.26;;;22.80;37.00
47080;BME280;33067;49.296;14.470;2023-05-23T00:24:23;96508.67;;;22.79;37.11
47080;BME280;33067;49.296;14.470;2023-05-23T00:26:48;96506.34;;;22.72;37.36
47080;BME280;33067;49.296;14.470;2023-05-23T00:29:14;96503.42;;;22.94;37.01
47080;BME280;33067;49.296;14.470;2023-05-23T00:31:38;96503.26;;;22.64;37.58
47080;BME280;33067;49.296;14.470;2023-05-23T00:34:03;96504.67;;;22.57;37.50
47080;BME280;33067;49.296;14.470;2023-05-23T00:36:29;96507.10;;;22.35;37.58
47080;BME280;33067;49.296;14.470;2023-05-23T00:38:54;96505.89;;;22.55;37.41
47080;BME280;33067;49.296;14.470;2023-05-23T00:41:20;96504.09;;;22.24;37.42
47080;BME280;33067;49.296;14.470;2023-05-23T00:43:45;96504.41;;;22.04;37.57
47080;BME280;33067;49.296;14.470;2023-05-23T00:46:10;96503.63;;;22.13;37.61
47080;BME280;33067;49.296;14.470;2023-05-23T00:48:36;96504.30;;;22.09;37.63
47080;BME280;33067;49.296;14.470;2023-05-23T00:51:01;96504.50;;;22.28;37.67
47080;BME280;33067;49.296;14.470;2023-05-23T00:53:26;96505.25;;;21.89;37.87
47080;BME280;33067;49.296;14.470;2023-05-23T00:55:52;96505.73;;;21.93;37.78
47080;BME280;33067;49.296;14.470;2023-05-23T00:58:17;96503.75;;;21.81;38.05
47080;BME280;33067;49.296;14.470;2023-05-23T01:00:43;96504.37;;;22.18;37.97
47080;BME280;33067;49.296;14.470;2023-05-23T01:03:08;96504.54;;;21.77;38.23
47080;BME280;33067;49.296;14.470;2023-05-23T01:05:34;96504.40;;;21.85;38.10
47080;BME280;33067;49.296;14.470;2023-05-23T01:07:59;96502.75;;;21.87;38.09
47080;BME280;33067;49.296;14.470;2023-05-23T01:10:26;96498.63;;;21.82;38.47
47080;BME280;33067;49.296;14.470;2023-05-23T01:13:00;96500.82;;;21.36;38.82
47080;BME280;33067;49.296;14.470;2023-05-23T01:15:17;96499.55;;;21.89;38.60
47080;BME280;33067;49.296;14.470;2023-05-23T01:17:44;96497.68;;;22.00;38.49
47080;BME280;33067;49.296;14.470;2023-05-23T01:20:09;96501.18;;;21.99;38.44
47080;BME280;33067;49.296;14.470;2023-05-23T01:22:41;96498.86;;;21.76;38.39
47080;BME280;33067;49.296;14.470;2023-05-23T01:25:05;96494.10;;;21.96;38.40
47080;BME280;33067;49.296;14.470;2023-05-23T01:29:53;96495.22;;;21.54;38.74
47080;BME280;33067;49.296;14.470;2023-05-23T01:32:15;96495.72;;;22.36;38.61
47080;BME280;33067;49.296;14.470;2023-05-23T01:34:40;96494.30;;;21.79;39.06
47080;BME280;33067;49.296;14.470;2023-05-23T01:37:10;96496.20;;;21.81;39.32
47080;BME280;33067;49.296;14.470;2023-05-23T01:39:30;96495.20;;;21.33;39.90
47080;BME280;33067;49.296;14.470;2023-05-23T01:41:55;96491.91;;;21.52;40.06
47080;BME280;33067;49.296;14.470;2023-05-23T01:44:23;96490.97;;;21.08;40.86
47080;BME280;33067;49.296;14.470;2023-05-23T01:46:46;96487.69;;;20.89;41.22
47080;BME280;33067;49.296;14.470;2023-05-23T01:49:13;96488.91;;;21.12;41.39
47080;BME280;33067;49.296;14.470;2023-05-23T01:51:37;96488.95;;;20.63;41.71
47080;BME280;33067;49.296;14.470;2023-05-23T01:54:02;96488.88;;;20.80;41.83
47080;BME280;33067;49.296;14.470;2023-05-23T01:56:27;96488.24;;;20.45;41.97
47080;BME280;33067;49.296;14.470;2023-05-23T01:58:52;96485.71;;;20.78;41.49
47080;BME280;33067;49.296;14.470;2023-05-23T02:01:18;96484.17;;;20.91;41.61
47080;BME280;33067;49.296;14.470;2023-05-23T02:03:43;96481.33;;;20.89;41.82
47080;BME280;33067;49.296;14.470;2023-05-23T02:06:09;96483.45;;;20.54;41.97
47080;BME280;33067;49.296;14.470;2023-05-23T02:08:33;96490.92;;;20.33;42.27
47080;BME280;33067;49.296;14.470;2023-05-23T02:13:01;96490.97;;;19.21;41.00
47080;BME280;33067;49.296;14.470;2023-05-23T02:15:26;96493.20;;;20.71;41.14
47080;BME280;33067;49.296;14.470;2023-05-23T02:17:52;96493.40;;;20.68;41.47
47080;BME280;33067;49.296;14.470;2023-05-23T02:20:18;96491.82;;;20.58;41.55
47080;BME280;33067;49.296;14.470;2023-05-23T02:22:43;96494.70;;;20.60;41.80
47080;BME280;33067;49.296;14.470;2023-05-23T02:25:09;96496.76;;;20.32;42.34
47080;BME280;33067;49.296;14.470;2023-05-23T02:27:34;96498.68;;;20.30;42.29
47080;BME280;33067;49.296;14.470;2023-05-23T02:30:01;96498.50;;;20.41;42.53
47080;BME280;33067;49.296;14.470;2023-05-23T02:32:25;96497.17;;;19.74;43.23
47080;BME280;33067;49.296;14.470;2023-05-23T02:34:51;96496.87;;;19.93;42.87
47080;BME280;33067;49.296;14.470;2023-05-23T02:37:16;96496.61;;;19.86;42.96
47080;BME280;33067;49.296;14.470;2023-05-23T02:39:42;96495.16;;;19.84;43.00
47080;BME280;33067;49.296;14.470;2023-05-23T02:42:06;96492.76;;;20.13;42.92
47080;BME280;33067;49.296;14.470;2023-05-23T02:44:31;96490.20;;;20.03;42.62
47080;BME280;33067;49.296;14.470;2023-05-23T02:46:57;96494.10;;;19.74;43.16
47080;BME280;33067;49.296;14.470;2023-05-23T02:49:22;96493.53;;;19.71;43.14
47080;BME280;33067;49.296;14.470;2023-05-23T02:51:49;96494.63;;;19.84;42.83
47080;BME280;33067;49.296;14.470;2023-05-23T02:54:13;96493.04;;;19.61;43.25
47080;BME280;33067;49.296;14.470;2023-05-23T02:56:38;96493.43;;;19.70;43.19
47080;BME280;33067;49.296;14.470;2023-05-23T02:59:03;96492.93;;;19.70;43.03
47080;BME280;33067;49.296;14.470;2023-05-23T03:01:29;96493.94;;;19.81;42.86
47080;BME280;33067;49.296;14.470;2023-05-23T03:03:54;96496.43;;;19.67;42.92
47080;BME280;33067;49.296;14.470;2023-05-23T03:06:19;96496.64;;;19.48;43.27
47080;BME280;33067;49.296;14.470;2023-05-23T03:08:45;96496.38;;;19.23;43.40
47080;BME280;33067;49.296;14.470;2023-05-23T03:11:10;96495.86;;;19.39;42.99
47080;BME280;33067;49.296;14.470;2023-05-23T03:13:36;96496.69;;;19.46;42.88
47080;BME280;33067;49.296;14.470;2023-05-23T03:16:01;96495.07;;;19.79;42.81
47080;BME280;33067;49.296;14.470;2023-05-23T03:18:26;96491.14;;;19.60;42.61
47080;BME280;33067;49.296;14.470;2023-05-23T03:20:52;96493.04;;;19.39;42.90
47080;BME280;33067;49.296;14.470;2023-05-23T03:23:17;96492.38;;;19.26;43.10
47080;BME280;33067;49.296;14.470;2023-05-23T03:25:43;96491.70;;;19.48;43.06
47080;BME280;33067;49.296;14.470;2023-05-23T03:28:08;96490.64;;;19.30;43.28
47080;BME280;33067;49.296;14.470;2023-05-23T03:30:34;96488.65;;;19.16;43.55
47080;BME280;33067;49.296;14.470;2023-05-23T03:33:00;96489.94;;;19.01;43.85
47080;BME280;33067;49.296;14.470;2023-05-23T03:35:25;96489.62;;;18.97;44.14
47080;BME280;33067;49.296;14.470;2023-05-23T03:37:51;96493.35;;;19.14;43.86
47080;BME280;33067;49.296;14.470;2023-05-23T03:40:17;96499.59;;;18.93;43.86
47080;BME280;33067;49.296;14.470;2023-05-23T03:42:42;96500.99;;;19.21;43.74
47080;BME280;33067;49.296;14.470;2023-05-23T03:45:07;96499.98;;;19.27;43.22
47080;BME280;33067;49.296;14.470;2023-05-23T03:47:33;96503.15;;;19.50;42.83
47080;BME280;33067;49.296;14.470;2023-05-23T03:49:58;96500.88;;;19.39;42.54
47080;BME280;33067;49.296;14.470;2023-05-23T03:52:23;96503.16;;;19.51;42.73
47080;BME280;33067;49.296;14.470;2023-05-23T03:54:50;96505.67;;;19.07;43.03
47080;BME280;33067;49.296;14.470;2023-05-23T03:57:14;96508.83;;;18.86;43.43
47080;BME280;33067;49.296;14.470;2023-05-23T03:59:39;96507.33;;;18.62;44.37
47080;BME280;33067;49.296;14.470;2023-05-23T04:02:04;96511.40;;;18.75;44.71
47080;BME280;33067;49.296;14.470;2023-05-23T04:04:30;96508.67;;;19.14;44.28
47080;BME280;33067;49.296;14.470;2023-05-23T04:06:58;96512.94;;;19.24;43.59
47080;BME280;33067;49.296;14.470;2023-05-23T04:09:20;96513.03;;;19.49;43.65
47080;BME280;33067;49.296;14.470;2023-05-23T04:11:45;96515.20;;;19.39;43.70
47080;BME280;33067;49.296;14.470;2023-05-23T04:14:11;96506.94;;;19.36;43.48
47080;BME280;33067;49.296;14.470;2023-05-23T04:16:37;96504.22;;;18.84;43.87
47080;BME280;33067;49.296;14.470;2023-05-23T04:19:02;96508.64;;;19.02;44.97
47080;BME280;33067;49.296;14.470;2023-05-23T04:21:27;96507.58;;;18.72;44.91
47080;BME280;33067;49.296;14.470;2023-05-23T04:23:52;96510.38;;;18.70;44.61
47080;BME280;33067;49.296;14.470;2023-05-23T04:26:18;96507.12;;;18.88;43.81
47080;BME280;33067;49.296;14.470;2023-05-23T04:28:43;96508.78;;;19.04;43.64
47080;BME280;33067;49.296;14.470;2023-05-23T04:31:08;96499.67;;;19.32;43.33
47080;BME280;33067;49.296;14.470;2023-05-23T04:33:34;96510.75;;;19.20;43.76
47080;BME280;33067;49.296;14.470;2023-05-23T04:35:59;96506.13;;;19.86;43.51
47080;BME280;33067;49.296;14.470;2023-05-23T04:38:24;96512.86;;;19.69;43.42
47080;BME280;33067;49.296;14.470;2023-05-23T04:40:50;96500.34;;;19.75;43.20
47080;BME280;33067;49.296;14.470;2023-05-23T04:43:15;96502.11;;;20.26;42.46
47080;BME280;33067;49.296;14.470;2023-05-23T04:45:41;96499.20;;;20.54;41.93
47080;BME280;33067;49.296;14.470;2023-05-23T04:48:08;96502.67;;;20.50;42.04
47080;BME280;33067;49.296;14.470;2023-05-23T04:50:31;96495.72;;;20.67;41.53
47080;BME280;33067;49.296;14.470;2023-05-23T04:52:57;96493.22;;;21.00;40.94
47080;BME280;33067;49.296;14.470;2023-05-23T04:55:22;96488.89;;;20.91;40.31
47080;BME280;33067;49.296;14.470;2023-05-23T04:57:47;96493.06;;;21.51;40.25
47080;BME280;33067;49.296;14.470;2023-05-23T05:00:13;96497.19;;;21.39;40.06
47080;BME280;33067;49.296;14.470;2023-05-23T05:02:39;96496.24;;;21.48;39.83
47080;BME280;33067;49.296;14.470;2023-05-23T05:05:04;96495.10;;;21.07;40.13
47080;BME280;33067;49.296;14.470;2023-05-23T05:07:30;96495.64;;;21.51;40.38
47080;BME280;33067;49.296;14.470;2023-05-23T05:09:56;96494.35;;;20.99;40.60
47080;BME280;33067;49.296;14.470;2023-05-23T05:12:21;96494.12;;;21.40;39.87
47080;BME280;33067;49.296;14.470;2023-05-23T05:14:46;96497.84;;;21.17;40.34
47080;BME280;33067;49.296;14.470;2023-05-23T05:17:12;96499.40;;;21.21;40.02
47080;BME280;33067;49.296;14.470;2023-05-23T05:19:38;96496.22;;;21.86;39.24
47080;BME280;33067;49.296;14.470;2023-05-23T05:22:03;96498.85;;;22.55;38.51
47080;BME280;33067;49.296;14.470;2023-05-23T05:24:28;96502.28;;;22.50;38.45
47080;BME280;33067;49.296;14.470;2023-05-23T05:26:53;96501.05;;;22.70;37.65
47080;BME280;33067;49.296;14.470;2023-05-23T05:29:18;96495.96;;;22.59;37.85
47080;BME280;33067;49.296;14.470;2023-05-23T05:31:44;96491.39;;;23.22;37.29
47080;BME280;33067;49.296;14.470;2023-05-23T05:34:10;96492.92;;;22.76;37.83
47080;BME280;33067;49.296;14.470;2023-05-23T05:36:35;96489.44;;;23.30;37.03
47080;BME280;33067;49.296;14.470;2023-05-23T05:39:01;96491.25;;;23.16;36.90
47080;BME280;33067;49.296;14.470;2023-05-23T05:41:28;96485.99;;;23.08;36.96
47080;BME280;33067;49.296;14.470;2023-05-23T05:43:51;96485.16;;;24.03;36.41
47080;BME280;33067;49.296;14.470;2023-05-23T05:46:17;96489.00;;;23.98;35.79
47080;BME280;33067;49.296;14.470;2023-05-23T05:48:43;96488.60;;;23.94;36.00
47080;BME280;33067;49.296;14.470;2023-05-23T05:51:08;96489.31;;;24.01;35.99
47080;BME280;33067;49.296;14.470;2023-05-23T05:53:33;96484.98;;;24.47;34.89
47080;BME280;33067;49.296;14.470;2023-05-23T05:55:59;96486.63;;;24.27;35.47
47080;BME280;33067;49.296;14.470;2023-05-23T05:58:26;96484.20;;;24.65;35.50
47080;BME280;33067;49.296;14.470;2023-05-23T06:00:50;96485.93;;;24.78;35.19
47080;BME280;33067;49.296;14.470;2023-05-23T06:03:16;96484.59;;;24.89;34.63
47080;BME280;33067;49.296;14.470;2023-05-23T06:05:41;96482.88;;;24.79;34.38
47080;BME280;33067;49.296;14.470;2023-05-23T06:08:07;96487.38;;;24.54;35.14
47080;BME280;33067;49.296;14.470;2023-05-23T06:10:32;96490.00;;;24.58;35.22
47080;BME280;33067;49.296;14.470;2023-05-23T06:12:58;96486.70;;;24.89;34.64
47080;BME280;33067;49.296;14.470;2023-05-23T06:15:23;96485.97;;;24.94;34.63
47080;BME280;33067;49.296;14.470;2023-05-23T06:17:49;96481.82;;;25.04;34.43
47080;BME280;33067;49.296;14.470;2023-05-23T06:20:14;96481.65;;;25.24;34.68
47080;BME280;33067;49.296;14.470;2023-05-23T06:22:40;96482.45;;;25.42;34.06
47080;BME280;33067;49.296;14.470;2023-05-23T06:25:06;96483.34;;;25.75;33.89
47080;BME280;33067;49.296;14.470;2023-05-23T06:27:31;96479.46;;;25.77;33.59
47080;BME280;33067;49.296;14.470;2023-05-23T06:29:57;96478.55;;;25.85;33.35
47080;BME280;33067;49.296;14.470;2023-05-23T06:32:23;96476.27;;;25.97;33.24
47080;BME280;33067;49.296;14.470;2023-05-23T06:34:48;96474.45;;;26.09;33.07
47080;BME280;33067;49.296;14.470;2023-05-23T06:37:13;96476.41;;;25.32;34.07
47080;BME280;33067;49.296;14.470;2023-05-23T06:39:39;96476.19;;;25.73;33.95
47080;BME280;33067;49.296;14.470;2023-05-23T06:42:05;96472.58;;;25.74;33.25
47080;BME280;33067;49.296;14.470;2023-05-23T06:44:30;96470.08;;;26.00;33.32
47080;BME280;33067;49.296;14.470;2023-05-23T06:46:55;96470.18;;;26.38;32.78
47080;BME280;33067;49.296;14.470;2023-05-23T06:49:21;96470.54;;;25.84;33.09
47080;BME280;33067;49.296;14.470;2023-05-23T06:51:47;96472.81;;;25.86;33.40
47080;BME280;33067;49.296;14.470;2023-05-23T06:54:12;96472.47;;;25.89;33.44
47080;BME280;33067;49.296;14.470;2023-05-23T06:56:38;96471.97;;;25.86;33.63
47080;BME280;33067;49.296;14.470;2023-05-23T06:59:05;96471.80;;;26.14;33.24
47080;BME280;33067;49.296;14.470;2023-05-23T07:01:29;96474.57;;;26.27;33.23
47080;BME280;33067;49.296;14.470;2023-05-23T07:03:55;96473.94;;;26.24;33.14
47080;BME280;33067;49.296;14.470;2023-05-23T07:06:21;96474.16;;;26.23;32.70
47080;BME280;33067;49.296;14.470;2023-05-23T07:08:48;96474.68;;;26.03;33.04
47080;BME280;33067;49.296;14.470;2023-05-23T07:11:11;96476.17;;;25.98;33.48
47080;BME280;33067;49.296;14.470;2023-05-23T07:13:37;96472.39;;;25.82;33.43
47080;BME280;33067;49.296;14.470;2023-05-23T07:16:03;96471.62;;;25.82;33.53
47080;BME280;33067;49.296;14.470;2023-05-23T07:18:28;96471.09;;;26.69;33.12
47080;BME280;33067;49.296;14.470;2023-05-23T07:20:56;96472.40;;;25.80;33.74
47080;BME280;33067;49.296;14.470;2023-05-23T07:23:24;96471.79;;;25.99;33.45
47080;BME280;33067;49.296;14.470;2023-05-23T07:25:45;96473.84;;;25.89;33.66
47080;BME280;33067;49.296;14.470;2023-05-23T07:28:11;96476.99;;;26.14;33.83
47080;BME280;33067;49.296;14.470;2023-05-23T07:30:36;96472.77;;;26.11;33.59
47080;BME280;33067;49.296;14.470;2023-05-23T07:33:02;96471.63;;;26.09;33.71
47080;BME280;33067;49.296;14.470;2023-05-23T07:35:27;96471.07;;;25.98;33.95
47080;BME280;33067;49.296;14.470;2023-05-23T07:37:54;96466.34;;;26.06;33.94
47080;BME280;33067;49.296;14.470;2023-05-23T07:40:20;96464.27;;;26.25;33.53
47080;BME280;33067;49.296;14.470;2023-05-23T07:42:44;96466.09;;;26.14;33.66
47080;BME280;33067;49.296;14.470;2023-05-23T07:45:10;96465.99;;;26.04;34.13
47080;BME280;33067;49.296;14.470;2023-05-23T07:47:35;96461.68;;;26.62;33.59
47080;BME280;33067;49.296;14.470;2023-05-23T07:49:59;96461.25;;;26.85;33.14
47080;BME280;33067;49.296;14.470;2023-05-23T07:52:24;96463.64;;;27.12;32.63
47080;BME280;33067;49.296;14.470;2023-05-23T07:54:49;96468.15;;;27.29;32.80
47080;BME280;33067;49.296;14.470;2023-05-23T07:57:15;96464.11;;;27.28;32.56
47080;BME280;33067;49.296;14.470;2023-05-23T07:59:41;96467.83;;;26.86;32.99
47080;BME280;33067;49.296;14.470;2023-05-23T08:02:06;96464.05;;;26.85;32.73
47080;BME280;33067;49.296;14.470;2023-05-23T08:04:31;96462.44;;;27.23;32.88
47080;BME280;33067;49.296;14.470;2023-05-23T08:06:57;96459.59;;;27.69;31.60
47080;BME280;33067;49.296;14.470;2023-05-23T08:09:22;96464.74;;;26.35;32.43
47080;BME280;33067;49.296;14.470;2023-05-23T08:11:48;96468.91;;;26.63;32.78
47080;BME280;33067;49.296;14.470;2023-05-23T08:14:13;96468.80;;;26.38;33.18
47080;BME280;33067;49.296;14.470;2023-05-23T08:16:39;96466.70;;;26.25;33.28
47080;BME280;33067;49.296;14.470;2023-05-23T08:19:04;96463.38;;;26.37;33.03
47080;BME280;33067;49.296;14.470;2023-05-23T08:21:30;96468.71;;;26.89;32.57
47080;BME280;33067;49.296;14.470;2023-05-23T08:23:56;96468.75;;;26.84;32.10
47080;BME280;33067;49.296;14.470;2023-05-23T08:26:21;96467.20;;;27.41;31.69
47080;BME280;33067;49.296;14.470;2023-05-23T08:28:49;96468.61;;;27.16;32.06
47080;BME280;33067;49.296;14.470;2023-05-23T08:31:12;96467.92;;;27.22;31.42
47080;BME280;33067;49.296;14.470;2023-05-23T08:33:37;96467.00;;;27.93;30.91
47080;BME280;33067;49.296;14.470;2023-05-23T08:36:03;96468.68;;;28.33;30.96
47080;BME280;33067;49.296;14.470;2023-05-23T08:38:28;96467.62;;;28.06;30.84
47080;BME280;33067;49.296;14.470;2023-05-23T08:40:55;96469.47;;;27.79;30.39
47080;BME280;33067;49.296;14.470;2023-05-23T08:43:19;96473.06;;;27.89;29.99
47080;BME280;33067;49.296;14.470;2023-05-23T08:45:45;96474.77;;;27.92;29.97
47080;BME280;33067;49.296;14.470;2023-05-23T08:48:12;96477.30;;;28.31;29.62
47080;BME280;33067;49.296;14.470;2023-05-23T08:50:37;96476.00;;;28.12;29.46
47080;BME280;33067;49.296;14.470;2023-05-23T08:53:01;96477.52;;;28.28;29.59
47080;BME280;33067;49.296;14.470;2023-05-23T08:55:27;96481.17;;;26.43;31.27
47080;BME280;33067;49.296;14.470;2023-05-23T08:57:52;96479.28;;;26.55;31.10
47080;BME280;33067;49.296;14.470;2023-05-23T09:00:18;96476.86;;;27.62;30.46
47080;BME280;33067;49.296;14.470;2023-05-23T09:02:43;96474.17;;;26.20;30.09
47080;BME280;33067;49.296;14.470;2023-05-23T09:05:08;96481.27;;;26.43;30.12
47080;BME280;33067;49.296;14.470;2023-05-23T09:07:33;96481.71;;;25.82;31.06
47080;BME280;33067;49.296;14.470;2023-05-23T09:09:58;96479.23;;;26.29;29.51
47080;BME280;33067;49.296;14.470;2023-05-23T09:12:23;96478.68;;;27.25;28.81
47080;BME280;33067;49.296;14.470;2023-05-23T09:14:50;96477.58;;;27.75;28.41
47080;BME280;33067;49.296;14.470;2023-05-23T09:17:17;96480.98;;;27.35;28.65
47080;BME280;33067;49.296;14.470;2023-05-23T09:19:40;96482.25;;;27.50;28.62
47080;BME280;33067;49.296;14.470;2023-05-23T09:22:05;96481.76;;;27.46;28.74
47080;BME280;33067;49.296;14.470;2023-05-23T09:24:34;96485.96;;;27.84;27.90
47080;BME280;33067;49.296;14.470;2023-05-23T09:26:55;96486.21;;;27.75;27.97
47080;BME280;33067;49.296;14.470;2023-05-23T09:29:21;96488.24;;;28.06;27.44
47080;BME280;33067;49.296;14.470;2023-05-23T09:31:47;96483.82;;;27.42;28.66
47080;BME280;33067;49.296;14.470;2023-05-23T09:34:12;96490.56;;;27.87;28.36
47080;BME280;33067;49.296;14.470;2023-05-23T09:36:40;96497.25;;;26.99;29.84
47080;BME280;33067;49.296;14.470;2023-05-23T09:39:03;96489.38;;;26.92;30.42
47080;BME280;33067;49.296;14.470;2023-05-23T09:41:29;96490.10;;;27.58;30.41
47080;BME280;33067;49.296;14.470;2023-05-23T09:43:53;96497.17;;;26.57;31.36
47080;BME280;33067;49.296;14.470;2023-05-23T09:46:19;96496.19;;;25.27;32.37
47080;BME280;33067;49.296;14.470;2023-05-23T09:48:46;96492.63;;;26.40;32.02
47080;BME280;33067;49.296;14.470;2023-05-23T09:51:09;96483.38;;;27.31;30.45
47080;BME280;33067;49.296;14.470;2023-05-23T09:53:35;96472.12;;;27.05;30.84
47080;BME280;33067;49.296;14.470;2023-05-23T09:56:02;96477.82;;;26.74;30.92
47080;BME280;33067;49.296;14.470;2023-05-23T09:58:27;96473.04;;;27.09;31.08
47080;BME280;33067;49.296;14.470;2023-05-23T10:00:50;96469.30;;;26.92;32.01
47080;BME280;33067;49.296;14.470;2023-05-23T10:03:16;96472.63;;;25.76;36.05
47080;BME280;33067;49.296;14.470;2023-05-23T10:05:44;96472.26;;;24.79;37.94
47080;BME280;33067;49.296;14.470;2023-05-23T10:08:09;96489.38;;;24.13;42.09
47080;BME280;33067;49.296;14.470;2023-05-23T10:10:34;96488.04;;;24.76;40.14
47080;BME280;33067;49.296;14.470;2023-05-23T10:13:01;96482.19;;;24.66;40.67
47080;BME280;33067;49.296;14.470;2023-05-23T10:15:32;96477.76;;;24.34;40.42
47080;BME280;33067;49.296;14.470;2023-05-23T10:18:01;96489.10;;;23.68;40.41
47080;BME280;33067;49.296;14.470;2023-05-23T10:20:15;96485.72;;;24.13;40.25
47080;BME280;33067;49.296;14.470;2023-05-23T10:22:41;96488.51;;;24.56;40.05
47080;BME280;33067;49.296;14.470;2023-05-23T10:25:07;96490.50;;;23.56;40.77
47080;BME280;33067;49.296;14.470;2023-05-23T10:27:34;96489.90;;;24.30;39.17
47080;BME280;33067;49.296;14.470;2023-05-23T10:29:58;96490.74;;;23.77;40.11
47080;BME280;33067;49.296;14.470;2023-05-23T10:32:24;96492.57;;;24.47;39.80
47080;BME280;33067;49.296;14.470;2023-05-23T10:34:55;96493.60;;;23.39;40.58
47080;BME280;33067;49.296;14.470;2023-05-23T10:37:18;96490.16;;;23.14;39.07
47080;BME280;33067;49.296;14.470;2023-05-23T10:39:48;96506.94;;;23.06;38.73
47080;BME280;33067;49.296;14.470;2023-05-23T10:42:10;96496.25;;;22.95;38.21
47080;BME280;33067;49.296;14.470;2023-05-23T10:44:31;96503.21;;;23.71;38.06
47080;BME280;33067;49.296;14.470;2023-05-23T10:46:58;96502.08;;;23.65;37.78
47080;BME280;33067;49.296;14.470;2023-05-23T10:51:49;96487.03;;;24.36;37.83
47080;BME280;33067;49.296;14.470;2023-05-23T10:54:13;96488.66;;;24.49;36.35
47080;BME280;33067;49.296;14.470;2023-05-23T10:56:39;96481.04;;;24.14;35.85
47080;BME280;33067;49.296;14.470;2023-05-23T10:59:05;96488.26;;;23.91;35.90
47080;BME280;33067;49.296;14.470;2023-05-23T11:01:30;96495.88;;;22.73;37.52
47080;BME280;33067;49.296;14.470;2023-05-23T11:03:57;96495.56;;;22.86;37.86
47080;BME280;33067;49.296;14.470;2023-05-23T11:06:30;96488.05;;;23.00;37.61
47080;BME280;33067;49.296;14.470;2023-05-23T11:08:46;96488.46;;;23.62;36.77
47080;BME280;33067;49.296;14.470;2023-05-23T11:11:12;96483.70;;;24.17;36.66
47080;BME280;33067;49.296;14.470;2023-05-23T11:13:53;96488.50;;;24.71;35.52
47080;BME280;33067;49.296;14.470;2023-05-23T11:18:33;96500.99;;;23.25;35.83
47080;BME280;33067;49.296;14.470;2023-05-23T11:20:54;96506.13;;;24.31;35.52
47080;BME280;33067;49.296;14.470;2023-05-23T11:23:19;96502.20;;;23.95;35.83
47080;BME280;33067;49.296;14.470;2023-05-23T11:25:48;96511.58;;;23.35;35.94
47080;BME280;33067;49.296;14.470;2023-05-23T11:28:12;96494.42;;;22.88;37.06
47080;BME280;33067;49.296;14.470;2023-05-23T11:30:36;96502.26;;;23.23;35.90
47080;BME280;33067;49.296;14.470;2023-05-23T11:33:06;96495.59;;;23.02;36.77
47080;BME280;33067;49.296;14.470;2023-05-23T11:35:27;96507.26;;;23.14;37.05
47080;BME280;33067;49.296;14.470;2023-05-23T11:37:56;96507.77;;;23.11;36.16
47080;BME280;33067;49.296;14.470;2023-05-23T11:40:26;96508.86;;;23.36;35.83
47080;BME280;33067;49.296;14.470;2023-05-23T11:42:44;96510.82;;;23.53;35.20
47080;BME280;33067;49.296;14.470;2023-05-23T11:45:09;96510.21;;;23.46;35.33
47080;BME280;33067;49.296;14.470;2023-05-23T11:47:39;96509.40;;;23.18;36.33
47080;BME280;33067;49.296;14.470;2023-05-23T11:50:00;96505.77;;;22.82;35.73
47080;BME280;33067;49.296;14.470;2023-05-23T11:52:31;96513.45;;;23.47;35.34
47080;BME280;33067;49.296;14.470;2023-05-23T11:54:51;96513.98;;;22.67;35.57
47080;BME280;33067;49.296;14.470;2023-05-23T11:57:17;96517.13;;;23.38;35.21
47080;BME280;33067;49.296;14.470;2023-05-23T11:59:44;96529.73;;;22.66;35.99
47080;BME280;33067;49.296;14.470;2023-05-23T12:02:09;96534.45;;;23.36;35.25
47080;BME280;33067;49.296;14.470;2023-05-23T12:04:33;96530.50;;;23.28;36.22
47080;BME280;33067;49.296;14.470;2023-05-23T12:07:04;96533.44;;;23.79;34.70
47080;BME280;33067;49.296;14.470;2023-05-23T12:09:25;96538.79;;;23.59;34.06
47080;BME280;33067;49.296;14.470;2023-05-23T12:11:52;96544.67;;;23.75;33.55
47080;BME280;33067;49.296;14.470;2023-05-23T12:14:17;96544.47;;;23.62;33.25
47080;BME280;33067;49.296;14.470;2023-05-23T12:16:43;96539.88;;;24.23;33.01
47080;BME280;33067;49.296;14.470;2023-05-23T12:19:09;96537.98;;;24.15;32.85
47080;BME280;33067;49.296;14.470;2023-05-23T12:21:41;96541.62;;;23.85;33.28
47080;BME280;33067;49.296;14.470;2023-05-23T12:26:24;96553.22;;;23.89;33.95
47080;BME280;33067;49.296;14.470;2023-05-23T12:28:52;96544.85;;;23.51;33.91
47080;BME280;33067;49.296;14.470;2023-05-23T12:31:19;96542.07;;;23.19;34.98
47080;BME280;33067;49.296;14.470;2023-05-23T12:33:43;96548.78;;;24.05;33.46
47080;BME280;33067;49.296;14.470;2023-05-23T12:36:08;96563.16;;;22.58;37.08
47080;BME280;33067;49.296;14.470;2023-05-23T12:38:33;96586.25;;;22.10;41.56
47080;BME280;33067;49.296;14.470;2023-05-23T12:41:07;96611.09;;;21.70;45.62
47080;BME280;33067;49.296;14.470;2023-05-23T12:43:24;96621.97;;;22.33;45.70
47080;BME280;33067;49.296;14.470;2023-05-23T12:45:49;96613.95;;;22.95;44.95
47080;BME280;33067;49.296;14.470;2023-05-23T12:48:15;96611.33;;;22.69;44.43
47080;BME280;33067;49.296;14.470;2023-05-23T12:50:40;96613.39;;;21.87;46.41